createdAt,value
2022-08-23T00:00:34.444Z,87.2
2022-08-23T00:03:00.531Z,87.2
2022-08-23T00:05:26.627Z,86.2
2022-08-23T00:07:52.720Z,87.2
2022-08-23T00:10:18.821Z,87.3
2022-08-23T00:12:44.925Z,88.1
2022-08-23T00:15:11.000Z,88.4
2022-08-23T00:17:37.095Z,88.5
2022-08-23T00:20:02.217Z,88.4
2022-08-23T00:22:28.314Z,88.7
2022-08-23T00:24:54.414Z,88.7
2022-08-23T00:27:20.499Z,88.5
2022-08-23T00:29:46.577Z,88.7
2022-08-23T00:32:12.675Z,89.5
2022-08-23T00:34:38.794Z,91
2022-08-23T00:37:03.894Z,92
2022-08-23T00:39:29.003Z,92.7
2022-08-23T00:41:55.112Z,92.4
2022-08-23T00:44:21.197Z,92.6
2022-08-23T00:46:47.304Z,92.4
2022-08-23T00:49:13.389Z,91.8
2022-08-23T00:51:39.485Z,90.6
2022-08-23T00:54:05.574Z,90.2
2022-08-23T00:56:30.698Z,90.4
2022-08-23T00:58:56.799Z,90.3
2022-08-23T01:01:22.871Z,90.3
2022-08-23T01:03:48.983Z,91.4
2022-08-23T01:06:15.073Z,91.9
2022-08-23T01:08:41.164Z,91.8
2022-08-23T01:11:07.268Z,91.9
2022-08-23T01:13:33.354Z,91.8
2022-08-23T01:15:59.469Z,91.9
2022-08-23T01:18:25.547Z,91.5
2022-08-23T01:20:51.643Z,91.2
2022-08-23T01:23:17.746Z,91.1
2022-08-23T01:25:43.823Z,91.2
2022-08-23T01:28:08.955Z,91
2022-08-23T01:30:34.062Z,91.2
2022-08-23T01:32:59.194Z,91
2022-08-23T01:35:24.300Z,90.5
2022-08-23T01:37:50.412Z,91.2
2022-08-23T01:40:16.482Z,92.2
2022-08-23T01:42:42.569Z,92.4
2022-08-23T01:45:08.670Z,92.1
2022-08-23T01:47:34.760Z,92.5
2022-08-23T01:50:00.904Z,92.5
2022-08-23T01:52:26.955Z,92.8
2022-08-23T01:54:53.049Z,92.4
2022-08-23T01:57:19.144Z,92.4
2022-08-23T01:59:45.240Z,92.4
2022-08-23T02:02:11.334Z,92.3
2022-08-23T02:04:37.443Z,92.6
2022-08-23T02:07:02.543Z,92.6
2022-08-23T02:09:28.637Z,92.5
2022-08-23T02:11:54.722Z,92.4
2022-08-23T02:14:20.829Z,92.4
2022-08-23T02:16:46.923Z,92.4
2022-08-23T02:19:13.016Z,92.4
2022-08-23T02:21:39.099Z,92.8
2022-08-23T02:24:04.231Z,92.7
2022-08-23T02:26:29.347Z,93.2
2022-08-23T02:28:54.464Z,93.1
2022-08-23T02:31:19.571Z,92.9
2022-08-23T02:33:45.672Z,93.2
2022-08-23T02:36:11.764Z,93.3
2022-08-23T02:38:37.856Z,93.4
2022-08-23T02:41:03.968Z,93.5
2022-08-23T02:43:30.047Z,93.4
2022-08-23T02:45:56.139Z,93.1
2022-08-23T02:48:22.253Z,93.9
2022-08-23T02:50:48.339Z,94.5
2022-08-23T02:53:14.430Z,95.2
2022-08-23T02:55:40.526Z,95.3
2022-08-23T02:58:06.634Z,95.7
2022-08-23T03:00:32.714Z,95.5
2022-08-23T03:02:57.836Z,95
2022-08-23T03:05:23.930Z,95
2022-08-23T03:07:50.022Z,94.8
2022-08-23T03:10:16.139Z,94.9
2022-08-23T03:12:42.213Z,94.7
2022-08-23T03:15:08.310Z,94.8
2022-08-23T03:17:34.413Z,95.3
2022-08-23T03:19:59.518Z,95.3
2022-08-23T03:22:24.634Z,95.3
2022-08-23T03:24:49.762Z,95.5
2022-08-23T03:27:14.880Z,95.5
2022-08-23T03:29:40.970Z,95.3
2022-08-23T03:32:07.076Z,95.1
2022-08-23T03:34:33.158Z,95.2
2022-08-23T03:36:59.259Z,95.4
2022-08-23T03:39:25.349Z,95.2
2022-08-23T03:41:51.464Z,95.1
2022-08-23T03:44:17.542Z,95.2
2022-08-23T03:46:43.648Z,95.2
2022-08-23T03:49:09.747Z,95.3
2022-08-23T03:51:35.827Z,95.8
2022-08-23T03:54:01.944Z,96
2022-08-23T03:56:28.037Z,96
2022-08-23T03:58:53.146Z,96.2
2022-08-23T04:01:19.231Z,96
2022-08-23T04:03:45.346Z,95.7
2022-08-23T04:06:11.429Z,95.8
2022-08-23T04:08:37.523Z,95.8
2022-08-23T04:11:03.634Z,96.3
2022-08-23T04:13:29.734Z,96.3
2022-08-23T04:15:54.835Z,96.2
2022-08-23T04:18:19.963Z,95.8
2022-08-23T04:20:45.071Z,95.8
2022-08-23T04:23:10.190Z,96
2022-08-23T04:25:36.284Z,96.4
2022-08-23T04:28:02.372Z,96
2022-08-23T04:30:28.470Z,96.6
2022-08-23T04:32:54.578Z,97.1
2022-08-23T04:35:20.662Z,97
2022-08-23T04:37:46.753Z,96.9
2022-08-23T04:40:12.875Z,97
2022-08-23T04:42:38.961Z,96.8
2022-08-23T04:45:05.057Z,97
2022-08-23T04:47:31.153Z,96.7
2022-08-23T04:49:57.241Z,96.4
2022-08-23T04:52:23.347Z,96.3
2022-08-23T04:54:48.437Z,96.5
2022-08-23T04:57:14.548Z,96.4
2022-08-23T04:59:40.645Z,96.4
2022-08-23T05:02:06.748Z,96.9
2022-08-23T05:04:32.830Z,97.6
2022-08-23T05:06:58.926Z,98.2
2022-08-23T05:09:25.020Z,98.4
2022-08-23T05:11:50.148Z,98.3
2022-08-23T05:14:15.260Z,98.2
2022-08-23T05:16:40.391Z,98
2022-08-23T05:19:05.491Z,97.3
2022-08-23T05:21:31.588Z,97.1
2022-08-23T05:23:57.688Z,96.2
2022-08-23T05:26:23.781Z,95.5
2022-08-23T05:28:49.884Z,95.3
2022-08-23T05:31:15.982Z,95.4
2022-08-23T05:33:42.079Z,95.1
2022-08-23T05:36:08.158Z,94.6
2022-08-23T05:38:34.267Z,94.1
2022-08-23T05:41:00.356Z,94.1
2022-08-23T05:43:26.450Z,93.8
2022-08-23T05:45:52.554Z,93.5
2022-08-23T05:48:18.655Z,92.9
2022-08-23T05:50:43.757Z,92.6
2022-08-23T05:53:09.854Z,92.2
2022-08-23T05:55:35.965Z,91.8
2022-08-23T05:58:02.060Z,91.3
2022-08-23T06:00:28.140Z,91.3
2022-08-23T06:02:54.252Z,91.3
2022-08-23T06:05:20.327Z,91
2022-08-23T06:07:45.465Z,90.7
2022-08-23T06:10:10.562Z,90.5
2022-08-23T06:12:35.693Z,90
2022-08-23T06:15:00.809Z,89.4
2022-08-23T06:17:26.896Z,89.4
2022-08-23T06:19:52.995Z,88.5
2022-08-23T06:22:19.091Z,87.7
2022-08-23T06:24:45.187Z,87.3
2022-08-23T06:27:11.269Z,86.7
2022-08-23T06:29:37.371Z,85.8
2022-08-23T06:32:03.468Z,85.3
2022-08-23T06:34:29.567Z,85
2022-08-23T06:36:55.657Z,85.3
2022-08-23T06:39:21.742Z,85
2022-08-23T06:41:47.828Z,83.6
2022-08-23T06:44:13.943Z,83.5
2022-08-23T06:46:39.057Z,83.1
2022-08-23T06:49:05.145Z,83.5
2022-08-23T06:51:31.227Z,83.2
2022-08-23T06:53:57.337Z,83
2022-08-23T06:56:23.425Z,82.4
2022-08-23T06:58:49.516Z,82.8
2022-08-23T07:01:15.618Z,82.9
2022-08-23T07:03:40.735Z,82.8
2022-08-23T07:06:05.866Z,82.3
2022-08-23T07:08:30.989Z,82.4
2022-08-23T07:10:56.091Z,81.7
2022-08-23T07:13:22.168Z,81.3
2022-08-23T07:15:48.276Z,81.5
2022-08-23T07:18:14.361Z,80.9
2022-08-23T07:20:40.461Z,80.1
2022-08-23T07:23:06.555Z,79.8
2022-08-23T07:25:32.648Z,79.4
2022-08-23T07:27:58.755Z,78.6
2022-08-23T07:30:25.106Z,79
2022-08-23T07:32:50.946Z,79.2
2022-08-23T07:35:17.297Z,79.2
2022-08-23T07:37:43.127Z,78.5
2022-08-23T07:40:09.232Z,77.8
2022-08-23T07:42:34.335Z,77.3
2022-08-23T07:45:00.441Z,77
2022-08-23T07:47:26.541Z,76.4
2022-08-23T07:49:52.633Z,76.3
2022-08-23T07:52:18.726Z,76.7
2022-08-23T07:54:44.883Z,76.1
2022-08-23T07:57:10.920Z,76.2
2022-08-23T07:59:36.049Z,75.5
2022-08-23T08:02:01.158Z,75.1
2022-08-23T08:04:26.271Z,74.9
2022-08-23T08:06:51.381Z,73.7
2022-08-23T08:09:17.481Z,72
2022-08-23T08:11:43.578Z,71.5
2022-08-23T08:14:09.658Z,72.4
2022-08-23T08:16:35.760Z,71.5
2022-08-23T08:19:01.860Z,70.6
2022-08-23T08:21:27.953Z,69
2022-08-23T08:23:54.046Z,69.5
2022-08-23T08:26:20.130Z,68.7
2022-08-23T08:28:46.232Z,68.3
2022-08-23T08:31:12.330Z,68
2022-08-23T08:33:38.426Z,67.3
2022-08-23T08:38:30.811Z,66.5
2022-08-23T08:40:55.724Z,65.2
2022-08-23T08:43:21.812Z,65.7
2022-08-23T08:45:47.935Z,65.7
2022-08-23T08:48:14.045Z,65.8
2022-08-23T08:50:40.102Z,65.5
2022-08-23T08:53:06.207Z,64.9
2022-08-23T08:55:32.299Z,64
2022-08-23T08:57:57.430Z,63.5
2022-08-23T09:00:22.523Z,62.7
2022-08-23T09:02:47.665Z,62.9
2022-08-23T09:05:12.781Z,63
2022-08-23T09:07:38.872Z,61.3
2022-08-23T09:10:04.960Z,61.8
2022-08-23T09:12:31.058Z,61.6
2022-08-23T09:14:57.153Z,60.5
2022-08-23T09:17:23.246Z,60.9
2022-08-23T09:19:49.349Z,59.5
2022-08-23T09:22:15.447Z,58.1
2022-08-23T09:24:41.538Z,57.5
2022-08-23T09:27:07.618Z,56
2022-08-23T09:29:33.717Z,55.5
2022-08-23T09:31:59.814Z,54
2022-08-23T09:34:25.907Z,53.3
2022-08-23T09:36:51.036Z,52.5
2022-08-23T09:39:17.112Z,52.5
2022-08-23T09:41:43.218Z,53.6
2022-08-23T09:44:09.310Z,52.1
2022-08-23T09:46:35.403Z,52.3
2022-08-23T09:49:01.503Z,51.7
2022-08-23T09:51:27.607Z,51.8
2022-08-23T09:53:52.711Z,51.7
2022-08-23T09:56:17.819Z,51.8
2022-08-23T09:58:43.932Z,52.2
2022-08-23T10:01:10.025Z,51.3
2022-08-23T10:03:35.146Z,48
2022-08-23T10:06:00.253Z,47
2022-08-23T10:08:26.336Z,47.8
2022-08-23T10:10:52.449Z,49.8
2022-08-23T10:13:18.547Z,49.5
2022-08-23T10:15:44.623Z,47.8
2022-08-23T10:18:10.715Z,47.6
2022-08-23T10:20:36.809Z,47.1
2022-08-23T10:23:02.916Z,47.2
2022-08-23T10:25:29.017Z,47.5
2022-08-23T10:27:55.104Z,46
2022-08-23T10:30:21.218Z,46.9
2022-08-23T10:32:47.287Z,45.9
2022-08-23T10:35:13.402Z,46
2022-08-23T10:37:38.498Z,45.6
2022-08-23T10:40:04.605Z,45.7
2022-08-23T10:42:30.698Z,46.3
2022-08-23T10:44:56.791Z,47
2022-08-23T10:47:22.874Z,45.1
2022-08-23T10:49:48.979Z,45.1
2022-08-23T10:52:15.067Z,43.5
2022-08-23T10:54:40.195Z,42.8
2022-08-23T10:57:05.322Z,43.9
2022-08-23T10:59:30.441Z,44.4
2022-08-23T11:01:55.533Z,43.6
2022-08-23T11:04:21.635Z,44.1
2022-08-23T11:06:47.747Z,44.1
2022-08-23T11:09:13.835Z,45.2
2022-08-23T11:11:39.941Z,42.7
2022-08-23T11:14:06.009Z,44.1
2022-08-23T11:16:32.114Z,44
2022-08-23T11:18:58.199Z,43.3
2022-08-23T11:21:24.307Z,44.6
2022-08-23T11:23:50.387Z,43.5
2022-08-23T11:26:16.488Z,44.7
2022-08-23T11:28:42.575Z,42.6
2022-08-23T11:31:08.673Z,43.3
2022-08-23T11:33:33.787Z,43.3
2022-08-23T11:35:59.891Z,44.8
2022-08-23T11:38:25.980Z,43.9
2022-08-23T11:40:52.085Z,44.1
2022-08-23T11:43:18.180Z,42.7
2022-08-23T11:45:44.267Z,42.3
2022-08-23T11:48:10.371Z,43.5
2022-08-23T11:50:35.486Z,42.9
2022-08-23T11:53:00.607Z,43.2
2022-08-23T11:55:25.716Z,42
2022-08-23T11:57:51.812Z,41.8
2022-08-23T12:00:16.949Z,42.4
2022-08-23T12:02:42.059Z,41.8
2022-08-23T12:05:08.150Z,41.3
2022-08-23T12:07:34.258Z,41.3
2022-08-23T12:10:00.371Z,42.5
2022-08-23T12:12:26.461Z,41.3
2022-08-23T12:14:52.543Z,40.7
2022-08-23T12:17:18.637Z,41.5
2022-08-23T12:19:44.727Z,41.5
2022-08-23T12:22:10.829Z,41.3
2022-08-23T12:24:36.921Z,40
2022-08-23T12:27:03.270Z,40.2
2022-08-23T12:29:29.109Z,39.3
2022-08-23T12:31:55.198Z,39.2
2022-08-23T12:34:20.351Z,39.7
2022-08-23T12:36:46.445Z,40.4
2022-08-23T12:39:12.506Z,39.6
2022-08-23T12:41:38.597Z,39
2022-08-23T12:44:04.684Z,40.1
2022-08-23T12:46:30.785Z,39.4
2022-08-23T12:48:56.891Z,39.4
2022-08-23T12:51:22.005Z,39.8
2022-08-23T12:53:47.118Z,39.2
2022-08-23T12:56:13.201Z,39.6
2022-08-23T12:58:39.291Z,39.2
2022-08-23T13:01:05.393Z,38.8
2022-08-23T13:03:31.484Z,39.9
2022-08-23T13:05:57.594Z,38.9
2022-08-23T13:08:23.680Z,38.3
2022-08-23T13:10:49.783Z,38
2022-08-23T13:13:15.872Z,36.5
2022-08-23T13:15:41.978Z,36.8
2022-08-23T13:18:08.304Z,37.4
2022-08-23T13:20:34.167Z,39.3
2022-08-23T13:23:00.251Z,38.1
2022-08-23T13:25:25.362Z,37.9
2022-08-23T13:27:51.456Z,38.4
2022-08-23T13:30:17.555Z,37.6
2022-08-23T13:32:43.668Z,37.6
2022-08-23T13:35:09.742Z,37.1
2022-08-23T13:37:35.862Z,38.3
2022-08-23T13:40:01.948Z,38.5
2022-08-23T13:42:27.077Z,38.1
2022-08-23T13:44:52.183Z,38.1
2022-08-23T13:47:18.283Z,36.6
2022-08-23T13:49:44.373Z,36.1
2022-08-23T13:52:10.470Z,35.3
2022-08-23T13:54:36.554Z,35.6
2022-08-23T13:57:02.669Z,35.4
2022-08-23T13:59:28.766Z,34.5
2022-08-23T14:01:54.842Z,35.6
2022-08-23T14:04:20.955Z,33
2022-08-23T14:06:47.053Z,33.4
2022-08-23T14:09:13.134Z,34.5
2022-08-23T14:11:39.230Z,33.7
2022-08-23T14:14:05.334Z,32.5
2022-08-23T14:16:30.444Z,32.8
2022-08-23T14:18:56.559Z,32
2022-08-23T14:21:22.653Z,33.5
2022-08-23T14:23:48.742Z,32.9
2022-08-23T14:26:14.832Z,33.7
2022-08-23T14:28:40.929Z,33.9
2022-08-23T14:31:07.027Z,33.5
2022-08-23T14:33:32.138Z,34
2022-08-23T14:35:57.263Z,33.1
2022-08-23T14:38:23.351Z,32.5
2022-08-23T14:40:49.465Z,32.4
2022-08-23T14:43:15.541Z,32.4
2022-08-23T14:45:41.659Z,32.8
2022-08-23T14:48:06.775Z,32
2022-08-23T14:50:31.880Z,33
2022-08-23T14:52:56.996Z,33
2022-08-23T14:55:22.114Z,32.9
2022-08-23T14:57:48.209Z,33.1
2022-08-23T15:00:14.314Z,32
2022-08-23T15:02:40.411Z,34.4
2022-08-23T15:05:06.524Z,33.4
2022-08-23T15:07:32.610Z,34.9
2022-08-23T15:09:58.698Z,35.9
2022-08-23T15:12:24.822Z,36.4
2022-08-23T15:14:50.905Z,39.6
2022-08-23T15:17:17.008Z,39.5
2022-08-23T15:19:43.095Z,40.3
2022-08-23T15:22:09.178Z,43
2022-08-23T15:24:35.291Z,39.3
2022-08-23T15:27:00.401Z,43.7
2022-08-23T15:29:26.484Z,42.8
2022-08-23T15:31:52.584Z,44.7
2022-08-23T15:34:18.677Z,42.5
2022-08-23T15:36:44.787Z,40.7
2022-08-23T15:39:10.887Z,40.6
2022-08-23T15:41:36.995Z,42.1
2022-08-23T15:44:02.099Z,44.1
2022-08-23T15:46:27.214Z,40.4
2022-08-23T15:48:52.333Z,38.4
2022-08-23T15:51:17.444Z,37.7
2022-08-23T15:53:42.563Z,41.2
2022-08-23T15:56:07.682Z,43.5
2022-08-23T15:58:33.789Z,45.6
2022-08-23T16:00:59.873Z,47.2
2022-08-23T16:03:25.964Z,48.1
2022-08-23T16:05:52.074Z,48.4
2022-08-23T16:08:18.159Z,45.6
2022-08-23T16:10:44.265Z,45.3
2022-08-23T16:13:10.363Z,44.2
2022-08-23T16:15:36.459Z,44
2022-08-23T16:18:02.558Z,45.1
2022-08-23T16:20:28.657Z,46.2
2022-08-23T16:22:54.757Z,48
2022-08-23T16:25:20.852Z,50.5
2022-08-23T16:27:45.953Z,52.9
2022-08-23T16:30:12.042Z,51.1
2022-08-23T16:32:38.152Z,49.7
2022-08-23T16:35:04.249Z,52.7
2022-08-23T16:37:30.350Z,52.7
2022-08-23T16:39:56.442Z,51
2022-08-23T16:42:22.532Z,53.5
2022-08-23T16:44:47.678Z,52.1
2022-08-23T16:47:12.771Z,51.9
2022-08-23T16:49:38.854Z,50.9
2022-08-23T16:52:04.955Z,51.2
2022-08-23T16:54:31.045Z,49.4
2022-08-23T16:56:57.147Z,49.5
2022-08-23T16:59:23.249Z,51.5
2022-08-23T17:01:49.331Z,53.7
2022-08-23T17:04:15.435Z,55.2
2022-08-23T17:06:41.537Z,55
2022-08-23T17:09:07.625Z,54.7
2022-08-23T17:11:33.734Z,55.8
2022-08-23T17:13:58.841Z,58.1
2022-08-23T17:16:24.926Z,58.8
2022-08-23T17:18:51.045Z,60.4
2022-08-23T17:21:17.116Z,60.9
2022-08-23T17:23:43.212Z,60.5
2022-08-23T17:26:09.366Z,62.2
2022-08-23T17:28:35.429Z,62
2022-08-23T17:31:01.513Z,62.2
2022-08-23T17:33:27.593Z,62.4
2022-08-23T17:35:52.732Z,62.9
2022-08-23T17:38:17.823Z,62.6
2022-08-23T17:40:42.966Z,64
2022-08-23T17:43:08.061Z,64.3
2022-08-23T17:45:33.188Z,64.1
2022-08-23T17:47:58.312Z,65.7
2022-08-23T17:50:24.391Z,64
2022-08-23T17:52:50.490Z,65.3
2022-08-23T17:55:16.585Z,64.7
2022-08-23T17:57:42.671Z,64.7
2022-08-23T18:00:08.784Z,65.9
2022-08-23T18:02:34.867Z,65.7
2022-08-23T18:05:00.982Z,66.6
2022-08-23T18:07:27.070Z,65.4
2022-08-23T18:09:53.168Z,65.3
2022-08-23T18:12:19.266Z,63.9
2022-08-23T18:14:45.362Z,65.1
2022-08-23T18:17:11.440Z,66
2022-08-23T18:19:36.567Z,66
2022-08-23T18:22:02.662Z,66.3
2022-08-23T18:24:28.753Z,66.7
2022-08-23T18:29:20.930Z,66.8
2022-08-23T18:31:47.042Z,67.8
2022-08-23T18:34:13.130Z,68.5
2022-08-23T18:36:39.215Z,67.8
2022-08-23T18:39:04.349Z,66.5
2022-08-23T18:41:29.447Z,68
2022-08-23T18:43:55.556Z,69.1
2022-08-23T18:46:20.670Z,68.5
2022-08-23T18:48:45.792Z,68
2022-08-23T18:51:11.902Z,69.4
2022-08-23T18:53:37.985Z,68.6
2022-08-23T18:56:04.077Z,69.5
2022-08-23T18:58:30.156Z,69.4
2022-08-23T19:00:56.273Z,69.9
2022-08-23T19:03:22.374Z,69.3
2022-08-23T19:05:48.454Z,69.6
2022-08-23T19:08:14.546Z,70
2022-08-23T19:10:40.646Z,69.3
2022-08-23T19:13:06.738Z,71.1
2022-08-23T19:15:32.842Z,71.5
2022-08-23T19:17:58.922Z,71
2022-08-23T19:20:24.041Z,72.1
2022-08-23T19:22:50.141Z,71.8
2022-08-23T19:25:16.233Z,71.4
2022-08-23T19:27:42.324Z,72.2
2022-08-23T19:30:08.410Z,72
2022-08-23T19:32:34.511Z,71.9
2022-08-23T19:35:00.608Z,73.3
2022-08-23T19:37:25.721Z,73.4
2022-08-23T19:39:50.834Z,72.5
2022-08-23T19:42:16.949Z,73.2
2022-08-23T19:44:43.035Z,73.9
2022-08-23T19:47:09.127Z,74.1
2022-08-23T19:49:35.222Z,74.1
2022-08-23T19:52:01.321Z,74.4
2022-08-23T19:54:27.406Z,75.8
2022-08-23T19:56:53.507Z,76.3
2022-08-23T19:59:19.606Z,76.3
2022-08-23T20:01:45.696Z,75.9
2022-08-23T20:04:11.786Z,75.8
2022-08-23T20:06:37.900Z,76.2
2022-08-23T20:09:03.990Z,76.7
2022-08-23T20:11:29.125Z,78.1
2022-08-23T20:13:55.192Z,77.9
2022-08-23T20:16:21.283Z,77.5
2022-08-23T20:18:47.394Z,76.5
2022-08-23T20:21:13.491Z,76.5
2022-08-23T20:23:39.576Z,77
2022-08-23T20:26:05.673Z,78.1
2022-08-23T20:28:30.788Z,79.1
2022-08-23T20:33:22.003Z,79.4
2022-08-23T20:35:47.120Z,79.5
2022-08-23T20:40:38.329Z,79
2022-08-23T20:43:04.431Z,78.6
2022-08-23T20:45:29.558Z,79.1
2022-08-23T20:47:54.658Z,78.8
2022-08-23T20:50:20.749Z,79.2
2022-08-23T20:52:46.857Z,78.6
2022-08-23T20:55:12.968Z,78.7
2022-08-23T20:57:39.026Z,78.9
2022-08-23T21:00:05.128Z,79
2022-08-23T21:02:31.236Z,79.6
2022-08-23T21:04:57.324Z,79.5
2022-08-23T21:07:23.412Z,79.8
2022-08-23T21:09:49.500Z,80.3
2022-08-23T21:12:15.614Z,80.2
2022-08-23T21:14:41.696Z,79.9
2022-08-23T21:17:07.809Z,79.8
2022-08-23T21:19:32.907Z,80.2
2022-08-23T21:21:59.012Z,80
2022-08-23T21:24:25.099Z,80.4
2022-08-23T21:26:51.190Z,80.9
2022-08-23T21:29:17.292Z,80.7
2022-08-23T21:31:43.378Z,81.4
2022-08-23T21:36:35.582Z,81.8
2022-08-23T21:39:00.710Z,81.9
2022-08-23T21:41:25.807Z,81.8
2022-08-23T21:43:51.899Z,82
2022-08-23T21:46:17.998Z,82.5
2022-08-23T21:48:44.083Z,82.5
2022-08-23T21:51:10.182Z,82.8
2022-08-23T21:53:36.285Z,82.8
2022-08-23T21:56:02.396Z,83.2
2022-08-23T21:58:28.486Z,83.6
2022-08-23T22:00:54.563Z,83.4
2022-08-23T22:03:20.663Z,83.7
2022-08-23T22:05:46.753Z,84
2022-08-23T22:08:12.842Z,84.3
2022-08-23T22:10:38.949Z,84.9
2022-08-23T22:13:04.055Z,85
2022-08-23T22:15:30.141Z,84.9
2022-08-23T22:17:56.255Z,84.8
2022-08-23T22:20:22.343Z,85
2022-08-23T22:22:48.440Z,85.2
2022-08-23T22:25:14.519Z,85.5
2022-08-23T22:27:40.626Z,85.7
2022-08-23T22:30:05.751Z,86
2022-08-23T22:32:30.860Z,86.6
2022-08-23T22:34:55.965Z,86.8
2022-08-23T22:37:21.089Z,87.1
2022-08-23T22:39:47.181Z,87
2022-08-23T22:42:13.272Z,87.2
2022-08-23T22:44:39.366Z,87.4
2022-08-23T22:47:05.472Z,87.4
2022-08-23T22:49:31.562Z,87.8
2022-08-23T22:51:57.658Z,88.5
2022-08-23T22:54:23.758Z,89
2022-08-23T22:56:49.854Z,89.3
2022-08-23T22:59:15.946Z,89.1
2022-08-23T23:01:42.033Z,89.2
2022-08-23T23:04:08.128Z,88.7
2022-08-23T23:06:34.239Z,89
2022-08-23T23:08:59.367Z,89.1
2022-08-23T23:11:25.439Z,89
2022-08-23T23:13:51.531Z,88.7
2022-08-23T23:16:17.617Z,88.9
2022-08-23T23:18:43.721Z,88.5
2022-08-23T23:21:09.825Z,88.7
2022-08-23T23:23:35.905Z,88.6
2022-08-23T23:26:01.031Z,88.7
2022-08-23T23:28:26.141Z,89
2022-08-23T23:33:18.353Z,90.1
2022-08-23T23:35:44.438Z,89.9
2022-08-23T23:38:10.542Z,89.4
2022-08-23T23:40:36.620Z,89.5
2022-08-23T23:43:02.710Z,89.2
2022-08-23T23:45:28.826Z,89.3
2022-08-23T23:47:54.919Z,89.5
2022-08-23T23:50:21.005Z,89.6
2022-08-23T23:52:47.103Z,89.9
2022-08-23T23:55:13.203Z,90.4
2022-08-23T23:57:39.303Z,90.4
